Last 24 Hours

Kelsey Bench (Oaklea)

Hourly Data | America/Los_Angeles
as of 6/14/24 5:46 AM PDT
Date & Time Temp (°F) RH (%) Dew Pt (°F) Wind Dir (°) Wind Spd (mph) Wind Gust (mph) Solar Rad (W/m2) Latest Rain (In) BatVolt (V) Daily Rain (In) Daily Min Temp (°F) Daily Max Temp (°F) Daily Max Wind (mph) Daily ETo (in)
6/14/24 - 0500 53.8 47 34.0 S | 172 3.3 4.6 3 0.00 12.8 0.00 53.0 60.8 6.9 0.003
6/14/24 - 0400 57.2 41 33.8 SSE | 163 3.4 6.3 3 0.00 12.8 0.00 55.1 60.8 6.9 0.002
6/14/24 - 0300 58.0 40 33.6 SSE | 161 4.4 6.9 3 0.00 12.8 0.00 56.4 60.8 6.9 0.001
6/14/24 - 0200 59.5 37 33.5 SSE | 160 4.2 6.4 3 0.00 12.9 0.00 58.0 60.8 6.4 0.000
6/14/24 - 0100 61.8 35 34.1 SE | 145 3.2 6.0 3 0.00 12.9 0.00 53.3 90.5 15.3 0.288
6/14/24 - 0000 64.9 34 35.7 SSE | 158 3.8 6.0 3 0.00 12.9 0.00 53.3 90.5 15.3 0.287
6/13/24 - 2300 68.2 33 37.9 S | 171 4.6 7.8 3 0.00 12.9 0.00 53.3 90.5 15.3 0.285
6/13/24 - 2200 69.8 35 41.0 SSE | 168 4.3 8.4 3 0.00 13.0 0.00 53.3 90.5 15.3 0.283
6/13/24 - 2100 74.1 30 40.8 SSW | 207 4.5 9.6 21 0.00 13.0 0.00 53.3 90.5 15.3 0.282
6/13/24 - 2000 79.8 24 39.9 WSW | 242 5.5 11.2 162 0.00 13.2 0.00 53.3 90.5 15.3 0.275
6/13/24 - 1900 84.1 20 38.2 WSW | 256 6.7 13.4 355 0.00 13.4 0.00 53.3 90.5 15.3 0.261
6/13/24 - 1800 86.4 20 40.4 WSW | 253 7.1 15.0 552 0.00 13.3 0.00 53.3 90.5 15.3 0.241
6/13/24 - 1700 87.1 25 47.0 WSW | 249 9.0 14.8 724 0.00 13.4 0.00 53.3 90.5 15.3 0.215
6/13/24 - 1600 88.6 23 46.1 WSW | 248 7.8 14.9 861 0.00 13.4 0.00 53.3 90.5 15.3 0.185
6/13/24 - 1500 88.5 22 45.4 SW | 235 8.1 15.3 958 0.00 13.4 0.00 53.3 90.5 15.3 0.153
6/13/24 - 1400 89.1 23 46.4 WSW | 253 6.4 13.5 1,007 0.00 13.4 0.00 53.3 90.5 13.5 0.120
6/13/24 - 1300 87.4 24 45.8 NNE | 22 4.2 9.9 998 0.00 13.4 0.00 53.3 89.4 9.9 0.089
6/13/24 - 1200 83.1 26 45.0 N | 7 3.7 7.5 942 0.00 13.5 0.00 53.3 86.5 7.5 0.061
6/13/24 - 1100 79.5 35 49.7 NNE | 20 3.6 7.5 830 0.00 13.5 0.00 53.3 80.6 7.5 0.037
6/13/24 - 1000 75.7 38 48.2 NNE | 20 1.9 4.8 677 0.00 13.5 0.00 53.3 78.1 5.4 0.019
6/13/24 - 0900 72.2 41 47.3 NNE | 15 1.5 5.0 489 0.00 13.6 0.00 53.3 73.1 5.4 0.008
6/13/24 - 0800 66.2 48 45.7 SSE | 160 1.8 4.1 285 0.00 13.7 0.00 53.3 71.2 5.4 0.002
6/13/24 - 0700 56.9 62 44.1 S | 174 2.4 3.8 100 0.00 13.3 0.00 53.3 62.4 5.4 0.001
6/13/24 - 0600 53.9 67 43.2 SSE | 165 3.5 4.3 6 0.00 12.8 0.00 53.3 62.0 5.4 0.001
6/13/24 - 0500 54.8 66 43.6 S | 169 2.9 4.1 3 0.00 12.8 0.00 53.8 62.0 5.4 0.001
Max 89.1 67 49.7 - 9.0 15.3 1,007 0.00 13.7 0.00 58.0 90.5 15.3 0.288
Avg 72.0 36 41.6 - 4.5 8.4 360 0.00 13.2 - - - - -
Min 53.8 20 33.5 - 1.5 3.8 3 0.00 12.8 0.00 53.0 60.8 5.4 0.000
Total - - - - - - - 0.00 - - - - - -